Portada
METAR-TAF:

METAR-TAF

Aeropuertos :

Aeropuerto Internacional de Nador

Nador, Marruecos

latitud: 34-59-20N, longitud: 003-01-42W, altitud: 175 m

Observación

El informe se hizo hace 20 minutos, a las 08:00 UTC
Viento 1 kt con dirección variable
Temperatura 11°C
Humedad 76%
Presión 1031 hPa
Visibilidad: 7000 m
Nubes dispersas a una altura de 2000 ft

METAR: GMMW 220800Z VRB01KT 7000 SCT020 11/07 Q1031 NOSIG

Hora: 08:20 (08:20 UTC)

Pronóstico

El informe se hizo hace 3 horas y 20 minutos, a las 05:00 UTC
Pronóstico válido del 22 a las 06 UTC al 23 a las 12 UTC
Viento 2 kt con dirección variable
Visibilidad: 7000 m
Nubes dispersas a una altura de 1500 ft
Cielo nuboso a una altura de 2000 ft
Evolucionando progresivamente
del 22 a las 08 UTC al 22 a las 10 UTC
Nubes dispersas a una altura de 2000 ft

TAF: GMMW 220500Z 2206/2312 VRB02KT 7000 SCT015 BKN020 BECMG 2208/2210 SCT020

Observaciones y pronósticos meteorológicos de más de 4000 aeropuertos (mensajes METAR y TAF).

Los puntos amarillos y rojos representan las estaciones disponibles.

Ponga el ratón en el punto deseado para ver el nombre de la estación.

Haga clic para ver las observaciones y los pronósticos meteorológicos.

Para cambiar el mapa : haga clic en los botones verdes con una cruz de color negro para hacer un zoom, en el botón verde con un guión para alejar o en las flechas verdes para mapas adyacentes.


METAR-TAF: